KGCN/GCN METAR and TAF weather

Enter ICAO airport designator
Station Type Date Time Source
KGCN METAR 2020/12/05 05:54 UTC NOAA

KGCN 050554Z AUTO 21005KT 10SM CLR M02/M18 A3034 RMK AO2 SLP257 T10171178 10067 21067 51012


Station Type Date Time Source
KGCN Decoded METAR 2020/12/05 05:54 UTC NOAA

GRAND CANYON NATL PARK AIRPORT , AZ, United States (KGCN) 35-57N 112-09W 2016M
Dec 05, 2020 - 12:54 AM EST / 2020.12.05 0554 UTC
Wind: from the SSW (210 degrees) at 6 MPH (5 KT):0
Visibility: 10 mile(s):0
Sky conditions: clear
Temperature: 28.9 F (-1.7 C)
Windchill: 23 F (-5 C):1
Dew Point: -0.0 F (-17.8 C)
Relative Humidity: 28%
Pressure (altimeter): 30.34 in. Hg (1027 hPa)
Pressure tendency: 0.04 inches (1.2 hPa) higher than three hours ago
ob: KGCN 050554Z AUTO 21005KT 10SM CLR M02/M18 A3034 RMK AO2 SLP257 T10171178 10067 21067 51012
cycle: 6

Station Type Date Time Source
KGCN TAF 2020/12/05 06:22 UTC NOAA

TAF KGCN 050520Z 0506/0606 VRB06KT P6SM SKC
FM051700 08008G14KT P6SM SKC
FM052300 VRB06KT P6SM SKC

Example: see airport list